Time;durP1;ratioP1;P1;durP2;ratioP2;P2;SDS_P1;SDS_P2;PMS_P1;PMS_P2;Temp;Humidity;BMP_temperature;BMP_pressure;BME280_temperature;BME280_humidity;BME280_pressure;Samples;Min_cycle;Max_cycle;Signal;HPM_P1;HPM_P2
2021/06/14 00:02:09;;;;;;;6.03;4.10;;;11.30;99.90;;;;;;5029854;28;20029;-75
2021/06/14 00:04:35;;;;;;;9.82;4.13;;;11.20;99.90;;;;;;5029808;28;20375;-74
2021/06/14 00:07:01;;;;;;;4.78;3.78;;;11.20;99.90;;;;;;5030021;28;20477;-74
2021/06/14 00:09:28;;;;;;;9.30;4.45;;;11.20;99.90;;;;;;5029630;28;20056;-74
2021/06/14 00:11:54;;;;;;;7.43;4.43;;;11.20;99.90;;;;;;5029854;28;20089;-74
2021/06/14 00:14:20;;;;;;;7.35;4.40;;;11.20;99.90;;;;;;5011937;28;20490;-74
2021/06/14 00:16:46;;;;;;;6.93;4.03;;;11.20;99.90;;;;;;5011878;28;20037;-74
2021/06/14 00:19:12;;;;;;;7.38;4.28;;;11.10;99.90;;;;;;5029468;28;20029;-74
2021/06/14 00:21:39;;;;;;;6.72;4.45;;;11.10;99.90;;;;;;5029512;28;20032;-74
2021/06/14 00:24:05;;;;;;;7.00;4.07;;;11.10;99.90;;;;;;5029388;28;20440;-74
2021/06/14 00:26:31;;;;;;;6.57;3.75;;;11.10;99.90;;;;;;5011684;28;20498;-74
2021/06/14 00:28:56;;;;;;;5.88;4.05;;;11.00;99.90;;;;;;5011495;28;20063;-74
2021/06/14 00:31:23;;;;;;;7.47;4.50;;;11.00;99.90;;;;;;5011190;28;20511;-74
2021/06/14 00:33:48;;;;;;;5.70;3.83;;;11.00;99.90;;;;;;5029573;28;20044;-74
2021/06/14 00:36:14;;;;;;;5.28;3.92;;;11.00;99.90;;;;;;5011620;28;20022;-74
2021/06/14 00:38:39;;;;;;;6.93;3.75;;;11.00;99.90;;;;;;5029351;28;20021;-74
2021/06/14 00:41:06;;;;;;;7.97;4.55;;;11.00;99.90;;;;;;5012947;28;20492;-74
2021/06/14 00:43:33;;;;;;;6.22;4.22;;;11.00;99.90;;;;;;5030468;28;20026;-74
2021/06/14 00:45:59;;;;;;;6.20;4.18;;;11.00;99.90;;;;;;5029504;28;20534;-74
2021/06/14 00:48:24;;;;;;;6.85;4.20;;;10.90;99.90;;;;;;5029660;28;20067;-74
2021/06/14 00:50:56;;;;;;;6.13;4.20;;;10.90;99.90;;;;;;5011522;28;20406;-74
2021/06/14 00:53:28;;;;;;;6.83;4.23;;;11.00;99.90;;;;;;5029128;28;20033;-74
2021/06/14 00:55:55;;;;;;;4.70;3.63;;;10.90;99.90;;;;;;5011500;28;20018;-74
2021/06/14 00:58:21;;;;;;;5.53;4.35;;;10.90;99.90;;;;;;5029045;28;20260;-74
2021/06/14 01:00:47;;;;;;;6.25;4.43;;;10.90;99.90;;;;;;5011471;28;20024;-74
2021/06/14 01:03:13;;;;;;;6.75;3.95;;;10.90;99.90;;;;;;5028947;28;20056;-74
2021/06/14 01:05:46;;;;;;;7.47;4.32;;;11.00;99.90;;;;;;5028884;28;20029;-74
2021/06/14 01:08:12;;;;;;;5.47;3.92;;;11.00;99.90;;;;;;5011356;28;20080;-74
2021/06/14 01:10:39;;;;;;;7.55;4.40;;;11.00;99.90;;;;;;5029233;28;20378;-74
2021/06/14 01:13:11;;;;;;;6.50;4.18;;;11.00;99.90;;;;;;5011193;28;20397;-73
2021/06/14 01:15:49;;;;;;;6.95;3.92;;;11.00;99.90;;;;;;5028975;28;20025;-74
2021/06/14 01:18:22;;;;;;;6.22;4.32;;;11.00;99.90;;;;;;5031919;23;20065;-74
2021/06/14 01:20:53;;;;;;;7.57;4.97;;;11.00;99.90;;;;;;5008825;28;20026;-74
2021/06/14 01:23:41;;;;;;;8.15;4.40;;;11.00;99.90;;;;;;5009853;28;20384;-74
2021/06/14 01:26:19;;;;;;;6.35;4.07;;;11.10;99.90;;;;;;5009550;28;20371;-74
2021/06/14 01:28:46;;;;;;;5.78;4.47;;;11.10;99.90;;;;;;5007947;28;20514;-74
2021/06/14 01:31:13;;;;;;;7.03;4.78;;;11.10;99.90;;;;;;5009211;28;20068;-74
2021/06/14 01:33:39;;;;;;;7.70;3.90;;;11.10;99.90;;;;;;5007859;28;20117;-74
2021/06/14 01:36:14;;;;;;;7.22;4.00;;;11.10;99.90;;;;;;5009181;28;20033;-74
2021/06/14 01:38:43;;;;;;;7.53;4.28;;;11.10;99.90;;;;;;5007940;28;20460;-74
2021/06/14 01:41:12;;;;;;;8.57;5.20;;;11.20;99.90;;;;;;5008868;28;20053;-74
2021/06/14 01:43:40;;;;;;;11.80;7.85;;;11.20;99.90;;;;;;5011557;28;20030;-74
2021/06/14 01:46:12;;;;;;;13.00;8.10;;;11.20;99.90;;;;;;5011491;28;20026;-73
2021/06/14 01:48:39;;;;;;;17.23;11.98;;;11.20;99.90;;;;;;5012713;28;20075;-75
2021/06/14 01:51:08;;;;;;;12.88;9.93;;;11.10;99.90;;;;;;5012924;28;20041;-74
2021/06/14 01:53:34;;;;;;;11.50;7.55;;;11.10;99.90;;;;;;5011379;28;20034;-74
2021/06/14 01:56:01;;;;;;;9.85;6.57;;;11.10;99.90;;;;;;5011357;28;20033;-74
2021/06/14 01:58:26;;;;;;;7.32;5.28;;;11.10;99.90;;;;;;5011215;28;20026;-74
2021/06/14 02:00:53;;;;;;;10.80;5.50;;;11.00;99.90;;;;;;5012848;28;20171;-74
2021/06/14 02:03:19;;;;;;;9.07;5.10;;;11.00;99.90;;;;;;5012812;28;20034;-75
2021/06/14 02:05:46;;;;;;;8.48;4.80;;;11.00;99.90;;;;;;5012696;28;20467;-74
2021/06/14 02:08:15;;;;;;;8.80;5.15;;;11.00;99.90;;;;;;5012583;28;20525;-74
2021/06/14 02:10:41;;;;;;;7.85;5.32;;;10.90;99.90;;;;;;5011106;28;20043;-74
2021/06/14 02:13:09;;;;;;;7.95;5.35;;;10.90;99.90;;;;;;5012453;28;20041;-74
2021/06/14 02:15:35;;;;;;;8.82;5.63;;;10.90;99.90;;;;;;5011134;28;20026;-74
2021/06/14 02:18:02;;;;;;;9.52;5.53;;;10.80;99.90;;;;;;5010789;28;20116;-75
2021/06/14 02:20:28;;;;;;;10.85;5.13;;;10.70;99.90;;;;;;5012204;28;20026;-74
2021/06/14 02:22:54;;;;;;;10.07;5.40;;;10.70;99.90;;;;;;5012112;28;20059;-74
2021/06/14 02:25:20;;;;;;;7.43;5.40;;;10.70;99.90;;;;;;5012849;28;20112;-73
2021/06/14 02:27:46;;;;;;;9.63;5.32;;;10.70;99.90;;;;;;5012337;28;20456;-74
2021/06/14 02:30:20;;;;;;;9.98;5.93;;;10.70;99.90;;;;;;5011962;28;20084;-74
2021/06/14 02:32:47;;;;;;;10.43;5.88;;;10.70;99.90;;;;;;5010681;28;20025;-74
2021/06/14 02:35:13;;;;;;;20.33;6.38;;;10.70;99.90;;;;;;5010766;28;20129;-74
2021/06/14 02:37:45;;;;;;;11.15;6.10;;;10.70;99.90;;;;;;5010823;28;20550;-74
2021/06/14 02:40:11;;;;;;;10.88;6.63;;;10.70;99.90;;;;;;5011936;28;20517;-74
2021/06/14 02:42:37;;;;;;;8.30;5.43;;;10.70;99.90;;;;;;5010600;28;20040;-74
2021/06/14 02:45:06;;;;;;;10.60;5.63;;;10.70;99.90;;;;;;5010531;28;20026;-75
2021/06/14 02:47:32;;;;;;;7.07;4.97;;;10.60;99.90;;;;;;5010365;28;20511;-74
2021/06/14 02:50:00;;;;;;;7.43;4.90;;;10.50;99.90;;;;;;5011906;28;20372;-74
2021/06/14 02:52:26;;;;;;;10.52;5.47;;;10.50;99.90;;;;;;5011118;28;20426;-73
2021/06/14 02:55:00;;;;;;;6.45;5.00;;;10.40;99.90;;;;;;5011528;28;20422;-74
2021/06/14 02:57:28;;;;;;;8.82;5.43;;;10.30;99.90;;;;;;5011525;28;20029;-74
2021/06/14 02:59:55;;;;;;;7.90;5.00;;;10.20;99.90;;;;;;5011417;28;20491;-74
2021/06/14 03:02:23;;;;;;;13.02;6.13;;;10.20;99.90;;;;;;5011339;28;20108;-74
2021/06/14 03:04:49;;;;;;;10.23;5.43;;;10.20;99.90;;;;;;5010035;28;20403;-74
2021/06/14 03:07:19;;;;;;;8.85;5.70;;;10.10;99.90;;;;;;5011720;28;20479;-74
2021/06/14 03:09:45;;;;;;;9.80;5.88;;;10.10;99.90;;;;;;5010151;28;20033;-74
2021/06/14 03:12:11;;;;;;;7.25;5.70;;;10.10;99.90;;;;;;5011064;28;20030;-74
2021/06/14 03:14:37;;;;;;;8.50;5.55;;;10.00;99.90;;;;;;5009423;28;20034;-75
2021/06/14 03:17:04;;;;;;;9.20;6.38;;;10.00;99.90;;;;;;5011290;28;20137;-74
2021/06/14 03:19:31;;;;;;;11.38;6.47;;;10.00;99.90;;;;;;5009627;28;20036;-75
2021/06/14 03:21:57;;;;;;;10.23;6.70;;;10.00;99.90;;;;;;5012018;28;20022;-75
2021/06/14 03:24:23;;;;;;;9.20;6.05;;;10.00;99.90;;;;;;5011621;28;20028;-74
2021/06/14 03:26:48;;;;;;;11.15;5.68;;;10.00;99.90;;;;;;5011455;28;20022;-74
2021/06/14 03:29:20;;;;;;;9.82;6.25;;;10.00;99.90;;;;;;5010760;28;20095;-75
2021/06/14 03:31:48;;;;;;;7.72;5.78;;;10.00;99.90;;;;;;5011118;28;20014;-74
2021/06/14 03:34:16;;;;;;;11.18;6.40;;;10.00;99.90;;;;;;5010726;28;20034;-74
2021/06/14 03:36:42;;;;;;;8.52;6.40;;;10.00;99.90;;;;;;5010728;28;20030;-74
2021/06/14 03:39:08;;;;;;;8.30;6.15;;;10.00;99.90;;;;;;5010648;28;20025;-75
2021/06/14 03:41:34;;;;;;;7.75;5.43;;;10.10;99.90;;;;;;5010650;28;20022;-75
2021/06/14 03:44:03;;;;;;;7.82;5.22;;;10.10;99.90;;;;;;5010776;28;20038;-74
2021/06/14 03:46:29;;;;;;;7.05;5.55;;;10.10;99.90;;;;;;5009264;28;20076;-74
2021/06/14 03:48:54;;;;;;;10.73;5.90;;;10.10;99.90;;;;;;5010579;28;20037;-74
2021/06/14 03:51:20;;;;;;;6.97;5.90;;;10.20;99.90;;;;;;5010402;28;20029;-74
2021/06/14 03:53:57;;;;;;;6.75;5.70;;;10.20;99.90;;;;;;5010298;28;20037;-75
2021/06/14 03:56:25;;;;;;;9.48;5.82;;;10.30;99.90;;;;;;5009079;28;20022;-74
2021/06/14 03:58:51;;;;;;;8.20;5.97;;;10.30;99.90;;;;;;5009033;28;20078;-75
2021/06/14 04:01:16;;;;;;;9.15;5.97;;;10.40;99.90;;;;;;5010328;28;20026;-75
2021/06/14 04:03:44;;;;;;;9.15;6.28;;;10.50;99.90;;;;;;5010784;28;20033;-75
2021/06/14 04:06:09;;;;;;;10.98;6.35;;;10.50;99.90;;;;;;5010307;28;20109;-74
2021/06/14 04:08:38;;;;;;;13.15;6.32;;;10.60;99.90;;;;;;5009182;28;20042;-74
2021/06/14 04:11:04;;;;;;;7.97;6.03;;;10.70;99.90;;;;;;5010107;28;20033;-74
2021/06/14 04:13:30;;;;;;;12.38;6.65;;;10.80;99.90;;;;;;5008723;28;20025;-74
2021/06/14 04:15:55;;;;;;;11.32;7.10;;;10.80;99.90;;;;;;5010051;28;20044;-74
2021/06/14 04:18:21;;;;;;;9.07;6.35;;;10.90;99.90;;;;;;5008533;28;20026;-75
2021/06/14 04:20:46;;;;;;;12.63;7.00;;;11.00;99.90;;;;;;5009038;28;20049;-74
2021/06/14 04:23:12;;;;;;;9.82;5.93;;;11.10;99.90;;;;;;5008729;28;20187;-74
2021/06/14 04:25:38;;;;;;;8.57;6.20;;;11.20;99.90;;;;;;5009886;28;20037;-74
2021/06/14 04:28:06;;;;;;;10.25;5.65;;;11.30;99.90;;;;;;5008308;28;20037;-74
2021/06/14 04:30:34;;;;;;;11.00;6.28;;;11.40;99.90;;;;;;5009717;28;20120;-75
2021/06/14 04:32:59;;;;;;;11.63;5.53;;;11.50;99.90;;;;;;5008439;28;20051;-74
2021/06/14 04:35:25;;;;;;;14.13;7.28;;;11.60;99.90;;;;;;5009602;28;20509;-74
2021/06/14 04:37:51;;;;;;;15.88;8.25;;;11.70;99.90;;;;;;5009747;28;20379;-74
2021/06/14 04:40:16;;;;;;;18.40;8.93;;;11.80;99.90;;;;;;5008361;28;20025;-74
2021/06/14 04:42:42;;;;;;;18.95;8.98;;;11.90;99.90;;;;;;5009696;28;20512;-74
2021/06/14 04:45:08;;;;;;;14.93;8.82;;;12.00;99.90;;;;;;5009598;28;20411;-74
2021/06/14 04:47:34;;;;;;;11.32;7.80;;;12.10;99.90;;;;;;5008393;28;20429;-74
2021/06/14 04:50:01;;;;;;;13.57;8.15;;;12.10;99.90;;;;;;5008248;28;20026;-74
2021/06/14 04:52:28;;;;;;;12.07;7.18;;;12.20;99.90;;;;;;5009528;28;20025;-74
2021/06/14 04:54:53;;;;;;;13.52;6.75;;;12.20;99.90;;;;;;5009870;28;20101;-74
2021/06/14 04:57:19;;;;;;;10.88;6.13;;;12.40;99.90;;;;;;5009556;28;20068;-75
2021/06/14 04:59:45;;;;;;;8.95;6.55;;;12.40;99.90;;;;;;5009460;28;20022;-75
2021/06/14 05:02:10;;;;;;;15.15;6.10;;;12.50;99.90;;;;;;5009499;28;20436;-74
2021/06/14 05:04:36;;;;;;;14.80;6.03;;;12.60;99.90;;;;;;5010750;28;20026;-74
2021/06/14 05:07:01;;;;;;;11.45;5.97;;;12.70;99.90;;;;;;5009429;28;20022;-73
2021/06/14 05:09:27;;;;;;;12.63;6.70;;;12.80;99.90;;;;;;5009428;28;20022;-74
2021/06/14 05:11:52;;;;;;;11.63;6.20;;;12.90;99.90;;;;;;5009756;28;20029;-74
2021/06/14 05:14:24;;;;;;;17.55;6.75;;;13.00;99.90;;;;;;5010546;28;20507;-74
2021/06/14 05:16:50;;;;;;;13.23;5.90;;;13.00;99.90;;;;;;5011425;28;20032;-74
2021/06/14 05:19:15;;;;;;;15.80;7.10;;;13.10;99.90;;;;;;5013016;28;20410;-74
2021/06/14 05:21:41;;;;;;;12.68;5.45;;;13.10;99.90;;;;;;5013046;28;20093;-73
2021/06/14 05:24:07;;;;;;;11.27;5.35;;;13.20;99.90;;;;;;5011715;28;20029;-74
2021/06/14 05:26:32;;;;;;;12.50;5.82;;;13.30;99.90;;;;;;5011923;28;20022;-73
2021/06/14 05:28:58;;;;;;;12.93;4.78;;;13.40;99.90;;;;;;5011791;28;20114;-74
2021/06/14 05:31:23;;;;;;;14.35;5.47;;;13.50;99.90;;;;;;5011742;28;20025;-74
2021/06/14 05:33:49;;;;;;;11.60;6.43;;;13.60;99.90;;;;;;5012913;28;20088;-73
2021/06/14 05:36:15;;;;;;;9.15;5.35;;;13.70;99.90;;;;;;5012931;28;20040;-73
2021/06/14 05:38:40;;;;;;;16.35;5.57;;;13.80;99.90;;;;;;5012884;28;20030;-74
2021/06/14 05:41:06;;;;;;;15.07;6.10;;;13.90;99.90;;;;;;5012904;28;20033;-74
2021/06/14 05:43:32;;;;;;;9.68;5.25;;;14.00;99.90;;;;;;5012887;28;20038;-74
2021/06/14 05:45:57;;;;;;;14.25;5.28;;;14.10;99.90;;;;;;5011502;28;20022;-74
2021/06/14 05:48:23;;;;;;;13.63;6.10;;;14.20;99.90;;;;;;5012866;28;20063;-74
2021/06/14 05:50:49;;;;;;;8.40;5.53;;;14.40;99.90;;;;;;5012718;28;20032;-73
2021/06/14 05:53:15;;;;;;;10.80;5.88;;;14.50;99.90;;;;;;5011331;28;20025;-74
2021/06/14 05:55:40;;;;;;;9.13;5.00;;;14.50;99.90;;;;;;5012582;28;20020;-74
2021/06/14 05:58:06;;;;;;;7.85;4.88;;;14.70;99.90;;;;;;5012593;28;20479;-74
2021/06/14 06:00:32;;;;;;;11.75;5.88;;;14.90;99.90;;;;;;5012632;28;20014;-73
2021/06/14 06:02:57;;;;;;;12.02;5.22;;;15.50;99.90;;;;;;5012512;28;20037;-74
2021/06/14 06:05:23;;;;;;;29.05;7.68;;;15.60;99.90;;;;;;5012379;28;20026;-74
2021/06/14 06:07:48;;;;;;;12.95;5.85;;;15.70;99.90;;;;;;5012175;28;20087;-75
2021/06/14 06:10:14;;;;;;;10.60;5.32;;;15.70;99.90;;;;;;5010952;28;20061;-75
2021/06/14 06:12:40;;;;;;;12.45;5.55;;;15.80;99.90;;;;;;5012450;28;20030;-74
2021/06/14 06:15:12;;;;;;;12.13;6.20;;;15.80;99.90;;;;;;5010728;28;20108;-74
2021/06/14 06:17:38;;;;;;;13.00;6.13;;;15.90;99.90;;;;;;5011691;28;20100;-75
2021/06/14 06:20:11;;;;;;;12.40;6.97;;;16.00;99.90;;;;;;5011138;28;20117;-74
2021/06/14 06:22:38;;;;;;;12.52;6.20;;;16.10;99.90;;;;;;5012112;28;20048;-75
2021/06/14 06:25:08;;;;;;;10.30;4.43;;;16.20;99.90;;;;;;5012103;28;20025;-75
2021/06/14 06:27:34;;;;;;;10.10;4.60;;;16.30;99.90;;;;;;5009570;28;20026;-75
2021/06/14 06:30:00;;;;;;;5.25;4.00;;;16.30;99.90;;;;;;5012053;28;20030;-75
2021/06/14 06:32:26;;;;;;;7.68;4.88;;;16.30;99.90;;;;;;5010593;28;20030;-75
2021/06/14 06:34:51;;;;;;;9.38;4.97;;;16.40;99.90;;;;;;5011830;28;20030;-75
2021/06/14 06:37:17;;;;;;;10.77;4.97;;;16.40;99.90;;;;;;5010639;28;20033;-75
2021/06/14 06:39:42;;;;;;;10.93;5.15;;;16.30;99.90;;;;;;5011648;28;20165;-75
2021/06/14 06:42:08;;;;;;;10.70;4.88;;;16.30;99.90;;;;;;5010543;28;20500;-74
2021/06/14 06:44:35;;;;;;;10.20;4.80;;;16.40;99.90;;;;;;5010395;28;20050;-75
2021/06/14 06:47:02;;;;;;;12.07;4.28;;;16.50;99.90;;;;;;5011843;28;20127;-75
2021/06/14 06:49:27;;;;;;;9.13;4.22;;;16.60;99.90;;;;;;5011567;28;20138;-75
2021/06/14 06:51:53;;;;;;;9.45;3.90;;;16.90;99.90;;;;;;5011793;28;20101;-75
2021/06/14 06:54:18;;;;;;;16.15;4.78;;;17.40;99.90;;;;;;5011375;28;20026;-75
2021/06/14 06:56:47;;;;;;;9.25;4.15;;;17.70;99.90;;;;;;5011470;28;20030;-75
2021/06/14 06:59:12;;;;;;;9.52;3.70;;;18.00;99.90;;;;;;5010111;28;20030;-75
2021/06/14 07:01:38;;;;;;;7.53;3.78;;;18.40;99.90;;;;;;5011660;28;20025;-74
2021/06/14 07:04:05;;;;;;;8.30;3.45;;;18.50;99.90;;;;;;5011397;28;20113;-75
2021/06/14 07:06:31;;;;;;;7.43;3.33;;;18.70;97.20;;;;;;5011306;28;20499;-75
2021/06/14 07:08:57;;;;;;;8.43;3.90;;;18.80;95.50;;;;;;5011169;28;20080;-75
2021/06/14 07:11:28;;;;;;;9.20;3.40;;;18.90;93.90;;;;;;5011502;28;20387;-75
2021/06/14 07:13:55;;;;;;;6.63;3.20;;;19.00;93.30;;;;;;5011429;28;20427;-75
2021/06/14 07:16:20;;;;;;;10.32;4.22;;;19.00;93.60;;;;;;5011169;28;20153;-75
2021/06/14 07:18:47;;;;;;;8.68;3.70;;;19.10;91.30;;;;;;5039559;22;20124;-75
2021/06/14 07:21:13;;;;;;;6.47;3.33;;;19.10;91.20;;;;;;5029669;28;20038;-76
2021/06/14 07:23:39;;;;;;;6.63;3.80;;;19.20;90.80;;;;;;5030825;28;20029;-76
2021/06/14 07:26:05;;;;;;;10.90;3.60;;;19.40;91.10;;;;;;5012894;28;20022;-76
2021/06/14 07:28:32;;;;;;;9.57;4.05;;;19.50;89.30;;;;;;5030672;28;20030;-76
2021/06/14 07:30:59;;;;;;;6.20;3.42;;;19.60;87.20;;;;;;5012930;28;20036;-76
2021/06/14 07:33:24;;;;;;;7.55;3.17;;;19.70;86.10;;;;;;5030517;28;20390;-76
2021/06/14 07:35:50;;;;;;;4.72;3.20;;;19.70;87.40;;;;;;5012877;28;20021;-75
2021/06/14 07:38:15;;;;;;;6.40;3.28;;;19.80;84.90;;;;;;5012712;28;20493;-75
2021/06/14 07:40:42;;;;;;;7.75;3.85;;;19.90;84.60;;;;;;5030116;28;20397;-75
2021/06/14 07:43:11;;;;;;;7.07;3.13;;;19.90;82.90;;;;;;5030395;28;20489;-75
2021/06/14 07:45:37;;;;;;;6.10;3.20;;;20.10;84.00;;;;;;5030350;28;20449;-75
2021/06/14 07:48:03;;;;;;;9.38;3.80;;;20.10;80.60;;;;;;5012543;28;20025;-75
2021/06/14 07:50:28;;;;;;;8.23;3.65;;;20.10;81.80;;;;;;5030215;28;20070;-75
2021/06/14 07:52:54;;;;;;;7.88;3.08;;;20.20;80.60;;;;;;5012377;28;20056;-75
2021/06/14 07:55:20;;;;;;;9.52;3.33;;;20.30;80.30;;;;;;5030235;28;20466;-75
2021/06/14 07:57:45;;;;;;;6.45;3.13;;;20.20;76.80;;;;;;5012489;28;20018;-76
2021/06/14 08:00:11;;;;;;;7.85;3.78;;;20.10;78.10;;;;;;5012543;28;20029;-75
2021/06/14 08:02:42;;;;;;;8.00;3.78;;;19.80;76.50;;;;;;5012399;28;20025;-75
2021/06/14 08:05:09;;;;;;;6.60;3.28;;;19.50;78.40;;;;;;5012368;28;20030;-75
2021/06/14 08:07:35;;;;;;;9.45;3.53;;;19.60;79.90;;;;;;5029944;28;20021;-75
2021/06/14 08:10:04;;;;;;;6.68;3.58;;;19.50;79.00;;;;;;5029840;28;20030;-74
2021/06/14 08:12:32;;;;;;;10.05;3.45;;;19.60;81.80;;;;;;5012345;28;20083;-75
2021/06/14 08:14:57;;;;;;;9.02;3.72;;;19.80;86.00;;;;;;5029891;28;20017;-75
2021/06/14 08:17:24;;;;;;;10.85;3.20;;;20.00;80.30;;;;;;5012113;28;20406;-75
2021/06/14 08:19:54;;;;;;;4.82;2.88;;;19.80;77.60;;;;;;5029565;28;20033;-74
2021/06/14 08:22:32;;;;;;;6.13;3.10;;;19.70;77.90;;;;;;5011968;28;20490;-74
2021/06/14 08:25:05;;;;;;;6.63;3.25;;;19.90;77.50;;;;;;5029739;28;20022;-74
2021/06/14 08:27:36;;;;;;;5.50;2.90;;;20.10;76.90;;;;;;5029671;28;20550;-75
2021/06/14 08:30:08;;;;;;;8.10;3.30;;;20.30;75.10;;;;;;5029580;28;20036;-74
2021/06/14 08:32:35;;;;;;;7.30;3.17;;;20.40;72.90;;;;;;5029498;28;20068;-75
2021/06/14 08:35:03;;;;;;;7.22;3.10;;;20.50;72.90;;;;;;5029829;28;20022;-74
2021/06/14 08:37:28;;;;;;;5.70;2.90;;;20.60;73.20;;;;;;5029793;28;20026;-75
2021/06/14 08:39:54;;;;;;;8.50;3.22;;;20.80;72.90;;;;;;5011712;28;20028;-74
2021/06/14 08:42:19;;;;;;;7.80;3.53;;;20.90;69.70;;;;;;5011777;28;20028;-75
2021/06/14 08:44:45;;;;;;;8.07;3.28;;;21.00;71.80;;;;;;5029434;28;20021;-74
2021/06/14 08:47:12;;;;;;;7.85;3.33;;;21.30;72.20;;;;;;5013586;28;20025;-75
2021/06/14 08:49:38;;;;;;;6.88;3.22;;;21.50;70.10;;;;;;5011845;28;20068;-74
2021/06/14 08:52:05;;;;;;;6.75;3.42;;;21.80;69.40;;;;;;5028795;28;20021;-74
2021/06/14 08:54:31;;;;;;;4.93;3.00;;;22.00;66.00;;;;;;5011804;28;20037;-75
2021/06/14 08:56:58;;;;;;;7.47;3.20;;;21.90;65.60;;;;;;5029253;28;20071;-75
2021/06/14 08:59:23;;;;;;;6.53;3.20;;;22.10;66.20;;;;;;5029180;28;20108;-75
2021/06/14 09:01:49;;;;;;;7.85;3.60;;;22.20;63.60;;;;;;5029199;28;20068;-76
2021/06/14 09:04:16;;;;;;;7.68;2.75;;;22.40;64.20;;;;;;5011592;28;20025;-75
2021/06/14 09:06:41;;;;;;;5.88;3.28;;;22.60;68.50;;;;;;5029521;28;20074;-75
2021/06/14 09:09:08;;;;;;;5.72;3.42;;;22.80;62.30;;;;;;5011106;28;20026;-75
2021/06/14 09:11:36;;;;;;;6.60;2.95;;;22.80;60.90;;;;;;5029267;28;20021;-75
2021/06/14 09:14:13;;;;;;;6.28;3.00;;;22.80;60.90;;;;;;5012606;28;20163;-75
2021/06/14 09:16:39;;;;;;;5.60;2.95;;;23.00;61.90;;;;;;5029266;28;20475;-75
2021/06/14 09:19:04;;;;;;;9.80;3.33;;;23.20;61.30;;;;;;5029015;28;20037;-75
2021/06/14 09:21:30;;;;;;;5.95;2.95;;;23.30;59.50;;;;;;5029165;28;20028;-76
2021/06/14 09:24:02;;;;;;;6.57;3.67;;;23.30;58.00;;;;;;5011461;28;20478;-75
2021/06/14 09:26:38;;;;;;;4.50;2.55;;;23.50;58.40;;;;;;5029129;28;20022;-75
2021/06/14 09:29:04;;;;;;;4.88;3.10;;;23.60;58.30;;;;;;5029003;28;20026;-76
2021/06/14 09:31:55;;;;;;;6.63;3.22;;;23.70;58.00;;;;;;5011249;28;20021;-75
2021/06/14 09:34:36;;;;;;;6.07;2.70;;;24.10;57.90;;;;;;5011260;28;20057;-76
2021/06/14 09:37:07;;;;;;;17.42;3.17;;;24.70;57.40;;;;;;5011242;28;20022;-75
2021/06/14 09:39:42;;;;;;;6.57;2.28;;;25.10;54.60;;;;;;5028737;28;20022;-75
2021/06/14 09:42:19;;;;;;;7.90;2.85;;;25.80;54.30;;;;;;5028903;28;20057;-75
2021/06/14 09:44:46;;;;;;;4.55;2.65;;;26.40;55.40;;;;;;5028834;28;20022;-74
2021/06/14 09:47:14;;;;;;;5.68;2.60;;;27.10;52.60;;;;;;5011187;28;20033;-74
2021/06/14 09:49:41;;;;;;;5.78;2.50;;;28.40;48.10;;;;;;5028722;28;20032;-74
2021/06/14 09:52:19;;;;;;;5.68;2.17;;;30.90;42.20;;;;;;5011221;28;20056;-74
2021/06/14 09:54:45;;;;;;;4.53;2.65;;;33.90;36.00;;;;;;5028774;28;20483;-73
2021/06/14 09:57:10;;;;;;;6.88;3.10;;;35.80;31.60;;;;;;5011208;28;20033;-73
2021/06/14 09:59:40;;;;;;;6.00;3.00;;;37.70;29.50;;;;;;5028699;28;20022;-74
2021/06/14 10:02:17;;;;;;;4.20;2.40;;;39.60;28.00;;;;;;5011839;28;20033;-73
2021/06/14 10:04:44;;;;;;;4.38;2.38;;;40.10;26.10;;;;;;5014590;28;20027;-74
2021/06/14 10:07:15;;;;;;;5.45;2.30;;;39.80;26.20;;;;;;5014417;28;20029;-73
2021/06/14 10:09:43;;;;;;;6.53;2.50;;;39.90;25.90;;;;;;5014324;28;20371;-74
2021/06/14 10:12:20;;;;;;;4.25;2.47;;;40.80;25.50;;;;;;5032502;28;20394;-74
2021/06/14 10:15:00;;;;;;;3.97;2.60;;;42.70;25.20;;;;;;5014374;28;20033;-75
2021/06/14 10:17:38;;;;;;;3.92;2.20;;;43.90;23.30;;;;;;5032292;28;20018;-74
2021/06/14 10:20:13;;;;;;;3.83;2.33;;;44.50;22.60;;;;;;5014120;28;20040;-74
2021/06/14 10:22:39;;;;;;;4.50;2.42;;;45.00;22.20;;;;;;5013949;28;20033;-75
2021/06/14 10:25:07;;;;;;;4.13;2.33;;;45.00;23.00;;;;;;5031745;28;20029;-74
2021/06/14 10:27:33;;;;;;;3.65;2.38;;;45.50;22.20;;;;;;5031736;28;20034;-74
2021/06/14 10:29:59;;;;;;;4.60;2.50;;;46.20;22.00;;;;;;5014041;28;20025;-74
2021/06/14 10:32:25;;;;;;;7.05;2.30;;;46.20;21.10;;;;;;5031812;28;20109;-75
2021/06/14 10:34:54;;;;;;;3.55;2.30;;;46.40;21.10;;;;;;5014060;28;20112;-74
2021/06/14 10:37:21;;;;;;;3.65;2.67;;;46.40;21.50;;;;;;5013906;28;20067;-74
2021/06/14 10:39:51;;;;;;;4.20;2.30;;;45.40;20.10;;;;;;5031507;28;20052;-75
2021/06/14 10:42:18;;;;;;;4.45;2.45;;;46.60;21.20;;;;;;5014202;28;20032;-75
2021/06/14 10:44:44;;;;;;;5.05;2.67;;;45.30;20.40;;;;;;5013655;28;20080;-74
2021/06/14 10:47:11;;;;;;;3.47;2.15;;;45.80;20.70;;;;;;5013612;28;20033;-75
2021/06/14 10:49:37;;;;;;;5.05;2.38;;;45.60;21.30;;;;;;5031215;28;20032;-74
2021/06/14 10:52:05;;;;;;;4.10;2.67;;;46.30;21.40;;;;;;5031389;28;20026;-75
2021/06/14 10:54:45;;;;;;;3.55;1.98;;;46.70;20.40;;;;;;5013845;28;20442;-74
2021/06/14 10:57:12;;;;;;;5.93;2.40;;;47.40;20.60;;;;;;5031264;28;20022;-75
2021/06/14 10:59:40;;;;;;;3.53;2.33;;;48.00;20.10;;;;;;5031163;28;20018;-75
2021/06/14 11:02:07;;;;;;;4.20;2.17;;;48.50;20.00;;;;;;5031058;28;20104;-75
2021/06/14 11:04:33;;;;;;;3.95;2.20;;;48.20;19.90;;;;;;5013240;28;20553;-74
2021/06/14 11:07:00;;;;;;;4.40;2.10;;;47.80;18.40;;;;;;5031388;28;20064;-75
2021/06/14 11:09:37;;;;;;;3.95;2.08;;;47.70;19.00;;;;;;5013201;28;20021;-75
2021/06/14 11:12:03;;;;;;;5.18;2.40;;;47.80;20.50;;;;;;5013249;28;20030;-74
2021/06/14 11:14:47;;;;;;;3.65;2.20;;;48.30;19.60;;;;;;5030188;28;20029;-75
2021/06/14 11:17:25;;;;;;;4.03;2.10;;;48.70;18.90;;;;;;5030858;28;20026;-74
2021/06/14 11:20:00;;;;;;;5.15;2.60;;;49.10;20.10;;;;;;5012933;28;20037;-74
2021/06/14 11:22:34;;;;;;;4.65;2.20;;;48.20;18.80;;;;;;5030691;28;20026;-75
2021/06/14 11:25:00;;;;;;;3.97;2.33;;;47.90;19.10;;;;;;5012978;28;20516;-75
2021/06/14 11:27:38;;;;;;;3.42;2.20;;;48.00;19.30;;;;;;5030775;28;20113;-75
2021/06/14 11:30:13;;;;;;;4.10;2.70;;;48.70;18.60;;;;;;5030495;28;20024;-75
2021/06/14 11:32:39;;;;;;;3.55;2.03;;;49.00;18.60;;;;;;5030639;28;20397;-75
2021/06/14 11:35:05;;;;;;;3.28;2.15;;;49.70;18.40;;;;;;5012808;28;20048;-75
2021/06/14 11:37:44;;;;;;;4.40;2.28;;;50.60;17.10;;;;;;5012793;28;20026;-75
2021/06/14 11:40:13;;;;;;;4.93;2.55;;;50.70;17.80;;;;;;5012749;28;20045;-75
2021/06/14 11:42:55;;;;;;;3.78;2.58;;;49.80;17.40;;;;;;5012493;28;20486;-75
2021/06/14 11:45:31;;;;;;;;;;;49.20;17.90;;;;;;5012907;28;20025;-74
2021/06/14 11:47:59;;;;;;;3.20;2.00;;;49.20;18.90;;;;;;5013295;28;19909;-75
2021/06/14 11:50:30;;;;;;;3.83;2.03;;;48.90;18.40;;;;;;5012307;28;20028;-75
2021/06/14 11:53:00;;;;;;;3.40;2.15;;;49.40;17.90;;;;;;5030694;28;20034;-75
2021/06/14 11:55:27;;;;;;;4.22;2.35;;;48.40;18.40;;;;;;5029732;28;20022;-75
2021/06/14 11:57:56;;;;;;;6.07;2.20;;;48.30;18.30;;;;;;5030328;28;20102;-75
2021/06/14 12:00:31;;;;;;;4.57;2.28;;;48.80;19.10;;;;;;5012595;28;20029;-75
2021/06/14 12:02:59;;;;;;;5.80;2.40;;;49.10;18.50;;;;;;5030175;28;20449;-74
2021/06/14 12:05:33;;;;;;;2.97;1.88;;;49.40;18.70;;;;;;5030180;28;20389;-75
2021/06/14 12:07:59;;;;;;;3.70;2.10;;;50.10;18.10;;;;;;5013193;28;20052;-75
2021/06/14 12:10:25;;;;;;;2.67;1.92;;;50.20;18.10;;;;;;5029903;28;20027;-74
2021/06/14 12:13:06;;;;;;;3.75;2.10;;;49.90;17.50;;;;;;5030013;28;20064;-74
2021/06/14 12:15:33;;;;;;;2.40;1.48;;;48.30;17.50;;;;;;5030052;28;20029;-74
2021/06/14 12:17:59;;;;;;;2.83;1.90;;;48.40;17.80;;;;;;5012264;28;20120;-75
2021/06/14 12:20:28;;;;;;;3.08;2.00;;;48.50;18.90;;;;;;5029650;28;20072;-75
2021/06/14 12:23:08;;;;;;;2.50;1.80;;;48.50;17.90;;;;;;5029905;28;20025;-75
2021/06/14 12:25:36;;;;;;;2.40;1.77;;;49.30;17.80;;;;;;5029061;28;20387;-75
2021/06/14 12:28:05;;;;;;;3.03;1.98;;;49.30;17.50;;;;;;5012109;28;20018;-75
2021/06/14 12:30:30;;;;;;;4.65;2.45;;;49.50;17.40;;;;;;5012015;28;20029;-75
2021/06/14 12:32:57;;;;;;;2.17;1.60;;;48.70;17.10;;;;;;5029888;28;20033;-75
2021/06/14 12:35:23;;;;;;;2.83;1.70;;;48.60;16.60;;;;;;5012025;28;20029;-74
2021/06/14 12:37:50;;;;;;;3.30;1.95;;;49.00;17.50;;;;;;5012050;28;20551;-74
2021/06/14 12:40:23;;;;;;;2.63;1.90;;;48.90;17.20;;;;;;5029843;28;20109;-74
2021/06/14 12:43:01;;;;;;;3.88;2.00;;;48.30;17.20;;;;;;5031425;28;20025;-75
2021/06/14 12:45:28;;;;;;;2.38;1.75;;;48.60;18.00;;;;;;5029824;28;20497;-75
2021/06/14 12:47:58;;;;;;;3.25;1.73;;;48.40;18.30;;;;;;5029496;28;20037;-75
2021/06/14 12:50:40;;;;;;;5.00;1.80;;;48.10;18.90;;;;;;5029574;28;20483;-75